sensor_id;sensor_type;location;lat;lon;timestamp;pressure;altitude;pressure_sealevel;temperature;humidity
15056;BME280;7626;42.674;23.284;2022-12-19T00:01:09;96466.53;;;6.55;59.48
15056;BME280;7626;42.674;23.284;2022-12-19T00:03:42;96472.66;;;6.51;59.29
15056;BME280;7626;42.674;23.284;2022-12-19T00:06:09;96471.91;;;6.47;59.42
15056;BME280;7626;42.674;23.284;2022-12-19T00:08:36;96472.69;;;6.49;59.54
15056;BME280;7626;42.674;23.284;2022-12-19T00:11:03;96476.97;;;6.50;58.80
15056;BME280;7626;42.674;23.284;2022-12-19T00:13:30;96473.63;;;6.48;59.27
15056;BME280;7626;42.674;23.284;2022-12-19T00:15:59;96472.75;;;6.48;59.31
15056;BME280;7626;42.674;23.284;2022-12-19T00:18:26;96477.94;;;6.46;58.86
15056;BME280;7626;42.674;23.284;2022-12-19T00:20:56;96486.50;;;6.48;59.42
15056;BME280;7626;42.674;23.284;2022-12-19T00:23:24;96490.00;;;6.45;59.29
15056;BME280;7626;42.674;23.284;2022-12-19T00:25:51;96480.63;;;6.43;59.05
15056;BME280;7626;42.674;23.284;2022-12-19T00:28:18;96481.53;;;6.42;59.29
15056;BME280;7626;42.674;23.284;2022-12-19T00:30:45;96484.09;;;6.42;59.50
15056;BME280;7626;42.674;23.284;2022-12-19T00:33:11;96481.66;;;6.37;59.46
15056;BME280;7626;42.674;23.284;2022-12-19T00:35:38;96485.06;;;6.38;59.48
15056;BME280;7626;42.674;23.284;2022-12-19T00:38:06;96489.31;;;6.40;59.23
15056;BME280;7626;42.674;23.284;2022-12-19T00:40:33;96489.34;;;6.39;59.85
15056;BME280;7626;42.674;23.284;2022-12-19T00:43:00;96486.84;;;6.36;58.69
15056;BME280;7626;42.674;23.284;2022-12-19T00:45:27;96491.09;;;6.38;59.54
15056;BME280;7626;42.674;23.284;2022-12-19T00:47:53;96492.81;;;6.38;58.89
15056;BME280;7626;42.674;23.284;2022-12-19T00:50:20;96486.78;;;6.39;59.61
15056;BME280;7626;42.674;23.284;2022-12-19T00:52:47;96495.47;;;6.35;59.27
15056;BME280;7626;42.674;23.284;2022-12-19T00:55:15;96488.69;;;6.32;59.27
15056;BME280;7626;42.674;23.284;2022-12-19T00:57:42;96493.00;;;6.32;59.24
15056;BME280;7626;42.674;23.284;2022-12-19T01:00:10;96493.84;;;6.32;59.54
15056;BME280;7626;42.674;23.284;2022-12-19T01:02:37;96494.72;;;6.31;60.03
15056;BME280;7626;42.674;23.284;2022-12-19T01:05:04;96494.59;;;6.36;59.89
15056;BME280;7626;42.674;23.284;2022-12-19T01:07:31;96503.19;;;6.35;59.64
15056;BME280;7626;42.674;23.284;2022-12-19T01:09:58;96496.47;;;6.31;59.87
15056;BME280;7626;42.674;23.284;2022-12-19T01:12:26;96496.50;;;6.29;60.00
15056;BME280;7626;42.674;23.284;2022-12-19T01:15:10;96498.28;;;6.27;59.52
15056;BME280;7626;42.674;23.284;2022-12-19T01:17:37;96506.03;;;6.27;59.38
15056;BME280;7626;42.674;23.284;2022-12-19T01:20:04;96506.09;;;6.24;58.96
15056;BME280;7626;42.674;23.284;2022-12-19T01:22:31;96500.16;;;6.22;59.20
15056;BME280;7626;42.674;23.284;2022-12-19T01:24:58;96504.50;;;6.20;59.03
15056;BME280;7626;42.674;23.284;2022-12-19T01:27:26;96507.91;;;6.22;59.44
15056;BME280;7626;42.674;23.284;2022-12-19T01:29:53;96508.72;;;6.22;59.25
15056;BME280;7626;42.674;23.284;2022-12-19T01:32:20;96511.31;;;6.22;59.63
15056;BME280;7626;42.674;23.284;2022-12-19T01:34:47;96513.00;;;6.23;59.65
15056;BME280;7626;42.674;23.284;2022-12-19T01:37:14;96504.50;;;6.20;59.39
15056;BME280;7626;42.674;23.284;2022-12-19T01:39:41;96502.69;;;6.23;59.59
15056;BME280;7626;42.674;23.284;2022-12-19T01:42:12;96505.22;;;6.25;59.75
15056;BME280;7626;42.674;23.284;2022-12-19T01:45:01;96502.69;;;6.23;59.69
15056;BME280;7626;42.674;23.284;2022-12-19T01:47:29;96504.50;;;6.20;60.01
15056;BME280;7626;42.674;23.284;2022-12-19T01:49:58;96501.88;;;6.21;59.78
15056;BME280;7626;42.674;23.284;2022-12-19T01:52:25;96499.34;;;6.20;59.99
15056;BME280;7626;42.674;23.284;2022-12-19T01:54:51;96502.09;;;6.15;60.29
15056;BME280;7626;42.674;23.284;2022-12-19T01:57:18;96500.31;;;6.17;59.90
15056;BME280;7626;42.674;23.284;2022-12-19T01:59:49;96496.94;;;6.15;59.64
15056;BME280;7626;42.674;23.284;2022-12-19T02:02:22;96491.78;;;6.15;59.98
15056;BME280;7626;42.674;23.284;2022-12-19T02:04:51;96496.13;;;6.13;60.09
15056;BME280;7626;42.674;23.284;2022-12-19T02:07:19;96495.31;;;6.11;59.21
15056;BME280;7626;42.674;23.284;2022-12-19T02:09:50;96493.50;;;6.15;59.76
15056;BME280;7626;42.674;23.284;2022-12-19T02:12:18;96485.97;;;6.08;59.55
15056;BME280;7626;42.674;23.284;2022-12-19T02:14:46;96492.03;;;6.06;59.70
15056;BME280;7626;42.674;23.284;2022-12-19T02:17:19;96491.97;;;6.09;59.59
15056;BME280;7626;42.674;23.284;2022-12-19T02:20:09;96493.78;;;6.05;59.19
15056;BME280;7626;42.674;23.284;2022-12-19T02:22:50;96497.16;;;6.07;59.34
15056;BME280;7626;42.674;23.284;2022-12-19T02:25:36;96493.00;;;6.02;59.45
15056;BME280;7626;42.674;23.284;2022-12-19T02:28:29;96498.94;;;6.05;59.20
15056;BME280;7626;42.674;23.284;2022-12-19T02:31:05;96499.84;;;6.03;59.88
15056;BME280;7626;42.674;23.284;2022-12-19T02:33:37;96503.38;;;6.00;59.09
15056;BME280;7626;42.674;23.284;2022-12-19T02:36:10;96511.16;;;5.99;59.30
15056;BME280;7626;42.674;23.284;2022-12-19T02:38:40;96512.81;;;6.00;59.05
15056;BME280;7626;42.674;23.284;2022-12-19T02:41:17;96513.69;;;6.00;59.45
15056;BME280;7626;42.674;23.284;2022-12-19T02:43:48;96514.63;;;5.96;58.96
15056;BME280;7626;42.674;23.284;2022-12-19T02:46:18;96509.50;;;5.96;59.86
15056;BME280;7626;42.674;23.284;2022-12-19T02:48:46;96506.03;;;5.96;59.28
15056;BME280;7626;42.674;23.284;2022-12-19T02:51:14;96500.88;;;5.97;59.35
15056;BME280;7626;42.674;23.284;2022-12-19T02:53:41;96495.75;;;5.96;59.01
15056;BME280;7626;42.674;23.284;2022-12-19T02:56:32;96497.63;;;5.90;59.22
15056;BME280;7626;42.674;23.284;2022-12-19T02:59:10;96494.19;;;5.90;59.46
15056;BME280;7626;42.674;23.284;2022-12-19T03:01:46;96493.44;;;5.86;59.04
15056;BME280;7626;42.674;23.284;2022-12-19T03:04:21;96494.19;;;5.90;59.11
15056;BME280;7626;42.674;23.284;2022-12-19T03:06:53;96483.88;;;5.90;59.37
15056;BME280;7626;42.674;23.284;2022-12-19T03:09:28;96478.72;;;5.90;59.13
15056;BME280;7626;42.674;23.284;2022-12-19T03:12:04;96479.56;;;5.92;59.15
15056;BME280;7626;42.674;23.284;2022-12-19T03:14:33;96481.25;;;5.92;58.80
15056;BME280;7626;42.674;23.284;2022-12-19T03:17:04;96487.28;;;5.92;59.32
15056;BME280;7626;42.674;23.284;2022-12-19T03:19:32;96485.66;;;5.88;59.55
15056;BME280;7626;42.674;23.284;2022-12-19T03:21:59;96480.59;;;5.85;59.18
15056;BME280;7626;42.674;23.284;2022-12-19T03:24:27;96485.84;;;5.82;59.35
15056;BME280;7626;42.674;23.284;2022-12-19T03:26:58;96496.09;;;5.83;59.14
15056;BME280;7626;42.674;23.284;2022-12-19T03:29:30;96494.31;;;5.85;59.13
15056;BME280;7626;42.674;23.284;2022-12-19T03:32:00;96494.41;;;5.82;59.04
15056;BME280;7626;42.674;23.284;2022-12-19T03:34:35;96498.66;;;5.83;59.20
15056;BME280;7626;42.674;23.284;2022-12-19T03:37:07;96506.47;;;5.80;59.04
15056;BME280;7626;42.674;23.284;2022-12-19T03:39:38;96510.69;;;5.83;58.98
15056;BME280;7626;42.674;23.284;2022-12-19T03:42:06;96512.50;;;5.79;59.39
15056;BME280;7626;42.674;23.284;2022-12-19T03:44:52;96508.25;;;5.78;58.71
15056;BME280;7626;42.674;23.284;2022-12-19T03:47:27;96498.91;;;5.76;58.69
15056;BME280;7626;42.674;23.284;2022-12-19T03:49:58;96507.50;;;5.75;58.16
15056;BME280;7626;42.674;23.284;2022-12-19T03:52:27;96504.88;;;5.76;59.17
15056;BME280;7626;42.674;23.284;2022-12-19T03:55:03;96518.63;;;5.75;58.22
15056;BME280;7626;42.674;23.284;2022-12-19T03:57:34;96519.47;;;5.76;58.84
15056;BME280;7626;42.674;23.284;2022-12-19T04:00:06;96522.91;;;5.76;58.80
15056;BME280;7626;42.674;23.284;2022-12-19T04:02:35;96528.06;;;5.75;59.08
15056;BME280;7626;42.674;23.284;2022-12-19T04:05:06;96532.34;;;5.76;59.15
15056;BME280;7626;42.674;23.284;2022-12-19T04:07:35;96534.97;;;5.74;59.11
15056;BME280;7626;42.674;23.284;2022-12-19T04:10:05;96545.25;;;5.74;59.21
15056;BME280;7626;42.674;23.284;2022-12-19T04:12:35;96541.09;;;5.68;58.44
15056;BME280;7626;42.674;23.284;2022-12-19T04:15:05;96538.53;;;5.68;58.66
15056;BME280;7626;42.674;23.284;2022-12-19T04:17:38;96548.81;;;5.68;58.10
15056;BME280;7626;42.674;23.284;2022-12-19T04:20:08;96550.56;;;5.68;58.79
15056;BME280;7626;42.674;23.284;2022-12-19T04:22:39;96552.38;;;5.64;58.76
15056;BME280;7626;42.674;23.284;2022-12-19T04:25:10;96556.66;;;5.64;58.63
15056;BME280;7626;42.674;23.284;2022-12-19T04:27:41;96557.66;;;5.60;58.70
15056;BME280;7626;42.674;23.284;2022-12-19T04:30:12;96555.03;;;5.61;58.84
15056;BME280;7626;42.674;23.284;2022-12-19T04:32:41;96548.19;;;5.60;58.03
15056;BME280;7626;42.674;23.284;2022-12-19T04:35:12;96538.84;;;5.58;57.95
15056;BME280;7626;42.674;23.284;2022-12-19T04:37:39;96541.38;;;5.59;58.13
15056;BME280;7626;42.674;23.284;2022-12-19T04:40:08;96539.69;;;5.58;57.88
15056;BME280;7626;42.674;23.284;2022-12-19T04:42:35;96546.50;;;5.59;58.68
15056;BME280;7626;42.674;23.284;2022-12-19T04:45:02;96549.19;;;5.55;57.55
15056;BME280;7626;42.674;23.284;2022-12-19T04:47:30;96544.03;;;5.56;58.39
15056;BME280;7626;42.674;23.284;2022-12-19T04:49:56;96548.25;;;5.57;58.32
15056;BME280;7626;42.674;23.284;2022-12-19T04:52:24;96556.03;;;5.56;57.96
15056;BME280;7626;42.674;23.284;2022-12-19T04:54:51;96550.00;;;5.57;58.34
15056;BME280;7626;42.674;23.284;2022-12-19T04:57:18;96551.78;;;5.55;58.30
15056;BME280;7626;42.674;23.284;2022-12-19T04:59:45;96559.50;;;5.55;58.60
15056;BME280;7626;42.674;23.284;2022-12-19T05:02:12;96558.59;;;5.56;58.23
15056;BME280;7626;42.674;23.284;2022-12-19T05:04:38;96557.00;;;5.51;58.03
15056;BME280;7626;42.674;23.284;2022-12-19T05:07:05;96554.38;;;5.53;57.75
15056;BME280;7626;42.674;23.284;2022-12-19T05:09:34;96563.00;;;5.50;58.39
15056;BME280;7626;42.674;23.284;2022-12-19T05:12:01;96561.47;;;5.45;57.64
15056;BME280;7626;42.674;23.284;2022-12-19T05:14:27;96559.81;;;5.42;57.63
15056;BME280;7626;42.674;23.284;2022-12-19T05:16:54;96557.94;;;5.47;58.02
15056;BME280;7626;42.674;23.284;2022-12-19T05:19:21;96555.34;;;5.49;57.94
15056;BME280;7626;42.674;23.284;2022-12-19T05:21:48;96555.34;;;5.49;58.24
15056;BME280;7626;42.674;23.284;2022-12-19T05:24:15;96561.25;;;5.52;59.01
15056;BME280;7626;42.674;23.284;2022-12-19T05:26:43;96559.50;;;5.55;58.86
15056;BME280;7626;42.674;23.284;2022-12-19T05:29:10;96564.72;;;5.51;58.82
15056;BME280;7626;42.674;23.284;2022-12-19T05:31:36;96558.75;;;5.51;58.69
15056;BME280;7626;42.674;23.284;2022-12-19T05:34:03;96560.41;;;5.52;58.19
15056;BME280;7626;42.674;23.284;2022-12-19T05:36:30;96568.09;;;5.53;58.15
15056;BME280;7626;42.674;23.284;2022-12-19T05:38:57;96575.75;;;5.55;58.31
15056;BME280;7626;42.674;23.284;2022-12-19T05:41:23;96570.66;;;5.53;58.47
15056;BME280;7626;42.674;23.284;2022-12-19T05:43:53;96571.53;;;5.52;57.93
15056;BME280;7626;42.674;23.284;2022-12-19T05:46:21;96564.56;;;5.58;58.60
15056;BME280;7626;42.674;23.284;2022-12-19T05:48:49;96567.13;;;5.58;58.59
15056;BME280;7626;42.674;23.284;2022-12-19T05:51:16;96567.22;;;5.55;58.71
15056;BME280;7626;42.674;23.284;2022-12-19T05:53:43;96566.34;;;5.54;58.41
15056;BME280;7626;42.674;23.284;2022-12-19T05:56:11;96574.06;;;5.54;58.26
15056;BME280;7626;42.674;23.284;2022-12-19T05:58:39;96578.41;;;5.52;58.81
15056;BME280;7626;42.674;23.284;2022-12-19T06:01:10;96569.88;;;5.51;58.76
15056;BME280;7626;42.674;23.284;2022-12-19T06:03:37;96568.97;;;5.52;58.71
15056;BME280;7626;42.674;23.284;2022-12-19T06:06:06;96578.38;;;5.53;58.36
15056;BME280;7626;42.674;23.284;2022-12-19T06:08:33;96575.75;;;5.55;58.40
15056;BME280;7626;42.674;23.284;2022-12-19T06:11:02;96573.13;;;5.58;59.17
15056;BME280;7626;42.674;23.284;2022-12-19T06:13:30;96571.38;;;5.59;59.16
15056;BME280;7626;42.674;23.284;2022-12-19T06:15:57;96580.91;;;5.55;58.91
15056;BME280;7626;42.674;23.284;2022-12-19T06:18:26;96578.31;;;5.57;58.67
15056;BME280;7626;42.674;23.284;2022-12-19T06:20:57;96585.22;;;5.55;58.67
15056;BME280;7626;42.674;23.284;2022-12-19T06:23:24;96587.78;;;5.55;58.74
15056;BME280;7626;42.674;23.284;2022-12-19T06:25:51;96581.66;;;5.59;58.35
15056;BME280;7626;42.674;23.284;2022-12-19T06:28:21;96595.28;;;5.62;58.19
15056;BME280;7626;42.674;23.284;2022-12-19T06:30:47;96594.47;;;5.62;58.91
15056;BME280;7626;42.674;23.284;2022-12-19T06:33:14;96590.19;;;5.61;59.23
15056;BME280;7626;42.674;23.284;2022-12-19T06:35:42;96584.91;;;5.65;58.98
15056;BME280;7626;42.674;23.284;2022-12-19T06:38:09;96586.59;;;5.68;59.28
15056;BME280;7626;42.674;23.284;2022-12-19T06:40:40;96594.25;;;5.69;59.32
15056;BME280;7626;42.674;23.284;2022-12-19T06:43:24;96597.66;;;5.70;59.22
15056;BME280;7626;42.674;23.284;2022-12-19T06:45:51;96597.63;;;5.71;59.40
15056;BME280;7626;42.674;23.284;2022-12-19T06:48:18;96600.16;;;5.73;59.01
15056;BME280;7626;42.674;23.284;2022-12-19T06:50:46;96604.41;;;5.76;59.12
15056;BME280;7626;42.674;23.284;2022-12-19T06:53:13;96610.38;;;5.76;58.98
15056;BME280;7626;42.674;23.284;2022-12-19T06:55:40;96608.69;;;5.75;59.01
15056;BME280;7626;42.674;23.284;2022-12-19T06:58:06;96616.41;;;5.75;58.69
15056;BME280;7626;42.674;23.284;2022-12-19T07:00:34;96626.69;;;5.75;58.28
15056;BME280;7626;42.674;23.284;2022-12-19T07:03:04;96627.47;;;5.79;58.93
15056;BME280;7626;42.674;23.284;2022-12-19T07:05:33;96626.53;;;5.81;58.57
15056;BME280;7626;42.674;23.284;2022-12-19T07:08:01;96627.47;;;5.79;58.38
15056;BME280;7626;42.674;23.284;2022-12-19T07:10:28;96632.50;;;5.83;58.70
15056;BME280;7626;42.674;23.284;2022-12-19T07:12:55;96632.56;;;5.80;58.82
15056;BME280;7626;42.674;23.284;2022-12-19T07:15:22;96639.38;;;5.83;58.38
15056;BME280;7626;42.674;23.284;2022-12-19T07:17:49;96632.53;;;5.82;58.67
15056;BME280;7626;42.674;23.284;2022-12-19T07:20:17;96634.28;;;5.81;58.55
15056;BME280;7626;42.674;23.284;2022-12-19T07:22:44;96632.56;;;5.80;58.31
15056;BME280;7626;42.674;23.284;2022-12-19T07:25:12;96640.25;;;5.82;58.02
15056;BME280;7626;42.674;23.284;2022-12-19T07:27:42;96639.38;;;5.83;57.97
15056;BME280;7626;42.674;23.284;2022-12-19T07:30:10;96633.41;;;5.82;58.03
15056;BME280;7626;42.674;23.284;2022-12-19T07:32:37;96636.03;;;5.79;57.82
15056;BME280;7626;42.674;23.284;2022-12-19T07:35:05;96638.53;;;5.82;57.59
15056;BME280;7626;42.674;23.284;2022-12-19T07:37:31;96643.72;;;5.81;57.57
15056;BME280;7626;42.674;23.284;2022-12-19T07:39:58;96648.00;;;5.80;57.83
15056;BME280;7626;42.674;23.284;2022-12-19T07:42:27;96656.56;;;5.82;57.79
15056;BME280;7626;42.674;23.284;2022-12-19T07:44:55;96661.69;;;5.82;57.71
15056;BME280;7626;42.674;23.284;2022-12-19T07:47:22;96656.53;;;5.84;57.88
15056;BME280;7626;42.674;23.284;2022-12-19T07:49:51;96667.63;;;5.86;58.39
15056;BME280;7626;42.674;23.284;2022-12-19T07:52:18;96676.97;;;5.88;57.99
15056;BME280;7626;42.674;23.284;2022-12-19T07:54:45;96679.53;;;5.88;57.87
15056;BME280;7626;42.674;23.284;2022-12-19T07:57:12;96679.50;;;5.90;58.34
15056;BME280;7626;42.674;23.284;2022-12-19T07:59:40;96678.72;;;5.88;57.84
15056;BME280;7626;42.674;23.284;2022-12-19T08:02:07;96684.72;;;5.87;57.61
15056;BME280;7626;42.674;23.284;2022-12-19T08:04:34;96688.25;;;5.84;57.09
15056;BME280;7626;42.674;23.284;2022-12-19T08:07:01;96691.66;;;5.85;57.18
15056;BME280;7626;42.674;23.284;2022-12-19T08:09:27;96689.06;;;5.85;57.27
15056;BME280;7626;42.674;23.284;2022-12-19T08:11:54;96690.00;;;5.82;56.96
15056;BME280;7626;42.674;23.284;2022-12-19T08:14:21;96690.88;;;5.81;56.82
15056;BME280;7626;42.674;23.284;2022-12-19T08:16:49;96691.78;;;5.79;57.26
15056;BME280;7626;42.674;23.284;2022-12-19T08:19:16;96692.59;;;5.82;57.00
15056;BME280;7626;42.674;23.284;2022-12-19T08:21:43;96692.47;;;5.85;57.33
15056;BME280;7626;42.674;23.284;2022-12-19T08:24:10;96692.44;;;5.87;57.58
15056;BME280;7626;42.674;23.284;2022-12-19T08:26:36;96701.91;;;5.86;57.64
15056;BME280;7626;42.674;23.284;2022-12-19T08:29:03;96692.44;;;5.87;57.70
15056;BME280;7626;42.674;23.284;2022-12-19T08:31:30;96697.59;;;5.87;57.66
15056;BME280;7626;42.674;23.284;2022-12-19T08:33:58;96696.72;;;5.88;57.38
15056;BME280;7626;42.674;23.284;2022-12-19T08:36:25;96691.63;;;5.86;57.42
15056;BME280;7626;42.674;23.284;2022-12-19T08:38:52;96695.03;;;5.87;57.01
15056;BME280;7626;42.674;23.284;2022-12-19T08:41:19;96697.56;;;5.88;57.62
15056;BME280;7626;42.674;23.284;2022-12-19T08:43:47;96696.75;;;5.86;57.35
15056;BME280;7626;42.674;23.284;2022-12-19T08:46:15;96695.03;;;5.87;57.21
15056;BME280;7626;42.674;23.284;2022-12-19T08:48:43;96683.88;;;5.86;57.22
15056;BME280;7626;42.674;23.284;2022-12-19T08:51:13;96676.25;;;5.83;56.73
15056;BME280;7626;42.674;23.284;2022-12-19T08:53:41;96675.34;;;5.86;56.96
15056;BME280;7626;42.674;23.284;2022-12-19T08:56:11;96678.75;;;5.86;57.21
15056;BME280;7626;42.674;23.284;2022-12-19T08:58:38;96668.41;;;5.88;57.28
15056;BME280;7626;42.674;23.284;2022-12-19T09:01:09;96670.94;;;5.89;57.34
15056;BME280;7626;42.674;23.284;2022-12-19T09:03:37;96665.75;;;5.91;57.76
15056;BME280;7626;42.674;23.284;2022-12-19T09:06:06;96669.22;;;5.90;57.42
15056;BME280;7626;42.674;23.284;2022-12-19T09:08:36;96665.81;;;5.89;57.31
15056;BME280;7626;42.674;23.284;2022-12-19T09:11:05;96657.22;;;5.90;57.31
15056;BME280;7626;42.674;23.284;2022-12-19T09:13:33;96653.72;;;5.92;57.49
15056;BME280;7626;42.674;23.284;2022-12-19T09:16:01;96655.50;;;5.89;57.44
15056;BME280;7626;42.674;23.284;2022-12-19T09:18:28;96645.13;;;5.93;57.30
15056;BME280;7626;42.674;23.284;2022-12-19T09:20:56;96643.41;;;5.93;57.34
15056;BME280;7626;42.674;23.284;2022-12-19T09:23:23;96644.19;;;5.97;57.45
15056;BME280;7626;42.674;23.284;2022-12-19T09:25:53;96633.03;;;5.96;57.89
15056;BME280;7626;42.674;23.284;2022-12-19T09:28:20;96627.00;;;5.99;58.00
15056;BME280;7626;42.674;23.284;2022-12-19T09:30:54;96620.13;;;5.98;57.74
15056;BME280;7626;42.674;23.284;2022-12-19T09:33:21;96614.88;;;6.02;57.88
15056;BME280;7626;42.674;23.284;2022-12-19T09:35:49;96612.22;;;6.05;57.64
15056;BME280;7626;42.674;23.284;2022-12-19T09:38:16;96610.41;;;6.09;58.02
15056;BME280;7626;42.674;23.284;2022-12-19T09:40:51;96607.00;;;6.08;58.01
15056;BME280;7626;42.674;23.284;2022-12-19T09:43:32;96599.34;;;6.05;58.01
15056;BME280;7626;42.674;23.284;2022-12-19T09:46:11;96602.66;;;6.09;57.90
15056;BME280;7626;42.674;23.284;2022-12-19T09:48:39;96597.44;;;6.12;58.46
15056;BME280;7626;42.674;23.284;2022-12-19T09:51:10;96597.31;;;6.17;58.80
15056;BME280;7626;42.674;23.284;2022-12-19T09:53:46;96592.88;;;6.22;58.41
15056;BME280;7626;42.674;23.284;2022-12-19T09:56:19;96586.72;;;6.26;58.87
15056;BME280;7626;42.674;23.284;2022-12-19T09:58:51;96584.13;;;6.28;59.05
15056;BME280;7626;42.674;23.284;2022-12-19T10:01:24;96587.41;;;6.33;59.17
15056;BME280;7626;42.674;23.284;2022-12-19T10:03:58;96581.34;;;6.35;58.74
15056;BME280;7626;42.674;23.284;2022-12-19T10:06:28;96576.13;;;6.37;59.10
15056;BME280;7626;42.674;23.284;2022-12-19T10:08:55;96580.34;;;6.39;59.03
15056;BME280;7626;42.674;23.284;2022-12-19T10:11:35;96575.16;;;6.41;58.72
15056;BME280;7626;42.674;23.284;2022-12-19T10:14:21;96572.56;;;6.41;59.10
15056;BME280;7626;42.674;23.284;2022-12-19T10:17:00;96563.91;;;6.43;59.22
15056;BME280;7626;42.674;23.284;2022-12-19T10:19:39;96557.81;;;6.46;59.18
15056;BME280;7626;42.674;23.284;2022-12-19T10:22:16;96556.91;;;6.49;59.17
15056;BME280;7626;42.674;23.284;2022-12-19T10:25:04;96548.28;;;6.50;59.27
15056;BME280;7626;42.674;23.284;2022-12-19T10:27:40;96544.75;;;6.52;59.33
15056;BME280;7626;42.674;23.284;2022-12-19T10:30:13;96539.59;;;6.52;59.12
15056;BME280;7626;42.674;23.284;2022-12-19T10:32:53;96538.69;;;6.55;59.38
15056;BME280;7626;42.674;23.284;2022-12-19T10:35:29;96545.44;;;6.57;59.58
15056;BME280;7626;42.674;23.284;2022-12-19T10:38:07;96542.09;;;6.55;59.13
15056;BME280;7626;42.674;23.284;2022-12-19T10:40:42;96535.19;;;6.56;59.01
15056;BME280;7626;42.674;23.284;2022-12-19T10:43:14;96534.28;;;6.58;59.41
15056;BME280;7626;42.674;23.284;2022-12-19T10:45:49;96524.78;;;6.59;59.41
15056;BME280;7626;42.674;23.284;2022-12-19T10:48:19;96532.53;;;6.59;59.26
15056;BME280;7626;42.674;23.284;2022-12-19T10:50:46;96524.78;;;6.59;59.19
15056;BME280;7626;42.674;23.284;2022-12-19T10:53:14;96524.75;;;6.60;59.45
15056;BME280;7626;42.674;23.284;2022-12-19T10:55:43;96517.81;;;6.62;59.28
15056;BME280;7626;42.674;23.284;2022-12-19T10:58:21;96522.88;;;6.66;59.62
15056;BME280;7626;42.674;23.284;2022-12-19T11:01:02;96524.56;;;6.67;59.41
15056;BME280;7626;42.674;23.284;2022-12-19T11:03:31;96522.03;;;6.65;59.52
15056;BME280;7626;42.674;23.284;2022-12-19T11:05:59;96516.00;;;6.66;59.25
15056;BME280;7626;42.674;23.284;2022-12-19T11:08:29;96521.06;;;6.68;59.01
15056;BME280;7626;42.674;23.284;2022-12-19T11:11:10;96523.59;;;6.69;59.38
15056;BME280;7626;42.674;23.284;2022-12-19T11:13:41;96523.56;;;6.71;59.08
15056;BME280;7626;42.674;23.284;2022-12-19T11:16:10;96523.56;;;6.71;59.56
15056;BME280;7626;42.674;23.284;2022-12-19T11:18:39;96512.38;;;6.72;59.43
15056;BME280;7626;42.674;23.284;2022-12-19T11:21:14;96514.13;;;6.71;59.24
15056;BME280;7626;42.674;23.284;2022-12-19T11:23:48;96509.78;;;6.72;59.64
15056;BME280;7626;42.674;23.284;2022-12-19T11:26:35;96514.13;;;6.71;59.36
15056;BME280;7626;42.674;23.284;2022-12-19T11:29:17;96509.75;;;6.73;59.31
15056;BME280;7626;42.674;23.284;2022-12-19T11:31:48;96514.84;;;6.75;59.39
15056;BME280;7626;42.674;23.284;2022-12-19T11:34:20;96514.84;;;6.75;59.53
15056;BME280;7626;42.674;23.284;2022-12-19T11:36:51;96518.28;;;6.75;59.39
15056;BME280;7626;42.674;23.284;2022-12-19T11:39:22;96514.84;;;6.75;59.67
15056;BME280;7626;42.674;23.284;2022-12-19T11:41:59;96519.09;;;6.76;59.43
15056;BME280;7626;42.674;23.284;2022-12-19T11:44:30;96511.38;;;6.76;59.67
15056;BME280;7626;42.674;23.284;2022-12-19T11:47:11;96505.34;;;6.77;59.54
15056;BME280;7626;42.674;23.284;2022-12-19T11:49:45;96507.91;;;6.77;59.53
15056;BME280;7626;42.674;23.284;2022-12-19T11:52:21;96503.59;;;6.77;59.48
15056;BME280;7626;42.674;23.284;2022-12-19T11:54:56;96508.69;;;6.79;59.52
15056;BME280;7626;42.674;23.284;2022-12-19T11:57:25;96505.28;;;6.78;59.59
15056;BME280;7626;42.674;23.284;2022-12-19T11:59:53;96504.44;;;6.78;59.34
15056;BME280;7626;42.674;23.284;2022-12-19T12:05:41;96505.34;;;6.77;59.52
15056;BME280;7626;42.674;23.284;2022-12-19T12:08:37;96500.97;;;6.79;59.71
15056;BME280;7626;42.674;23.284;2022-12-19T12:11:22;96506.06;;;6.80;59.22
15056;BME280;7626;42.674;23.284;2022-12-19T12:16:54;96517.19;;;6.82;59.41
15056;BME280;7626;42.674;23.284;2022-12-19T12:19:41;96512.38;;;6.72;59.33
15056;BME280;7626;42.674;23.284;2022-12-19T12:22:24;96506.16;;;6.77;59.57
15056;BME280;7626;42.674;23.284;2022-12-19T12:25:00;96504.50;;;6.76;59.64
15056;BME280;7626;42.674;23.284;2022-12-19T12:27:40;96506.38;;;6.71;59.46
15056;BME280;7626;42.674;23.284;2022-12-19T12:30:11;96516.53;;;6.76;59.36
15056;BME280;7626;42.674;23.284;2022-12-19T12:35:33;96519.91;;;6.78;59.49
15056;BME280;7626;42.674;23.284;2022-12-19T12:38:15;96520.00;;;6.75;59.93
15056;BME280;7626;42.674;23.284;2022-12-19T12:40:56;96520.00;;;6.75;59.81
15056;BME280;7626;42.674;23.284;2022-12-19T12:43:43;96526.78;;;6.77;59.91
15056;BME280;7626;42.674;23.284;2022-12-19T12:46:14;96520.84;;;6.75;59.90
15056;BME280;7626;42.674;23.284;2022-12-19T12:48:46;96510.63;;;6.72;59.92
15056;BME280;7626;42.674;23.284;2022-12-19T12:51:17;96509.88;;;6.69;59.36
15056;BME280;7626;42.674;23.284;2022-12-19T12:53:45;96514.06;;;6.73;59.89
15056;BME280;7626;42.674;23.284;2022-12-19T12:56:16;96503.72;;;6.74;59.92
15056;BME280;7626;42.674;23.284;2022-12-19T12:59:12;96505.44;;;6.74;59.73
15056;BME280;7626;42.674;23.284;2022-12-19T13:01:48;96501.22;;;6.71;59.74
15056;BME280;7626;42.674;23.284;2022-12-19T13:04:20;96503.75;;;6.73;59.42
15056;BME280;7626;42.674;23.284;2022-12-19T13:07:14;96505.44;;;6.74;59.73
15056;BME280;7626;42.674;23.284;2022-12-19T13:09:42;96524.38;;;6.73;59.30
15056;BME280;7626;42.674;23.284;2022-12-19T13:12:19;96515.78;;;6.72;59.37
15056;BME280;7626;42.674;23.284;2022-12-19T13:15:30;96511.44;;;6.74;59.22
15056;BME280;7626;42.674;23.284;2022-12-19T13:18:11;96513.94;;;6.76;59.04
15056;BME280;7626;42.674;23.284;2022-12-19T13:20:43;96515.75;;;6.74;58.75
15056;BME280;7626;42.674;23.284;2022-12-19T13:23:23;96523.59;;;6.69;57.94
15056;BME280;7626;42.674;23.284;2022-12-19T13:25:59;96524.44;;;6.71;57.99
15056;BME280;7626;42.674;23.284;2022-12-19T13:28:41;96534.88;;;6.67;57.67
15056;BME280;7626;42.674;23.284;2022-12-19T13:31:13;96528.03;;;6.66;57.48
15056;BME280;7626;42.674;23.284;2022-12-19T13:33:45;96534.91;;;6.65;57.38
15056;BME280;7626;42.674;23.284;2022-12-19T13:36:46;96532.47;;;6.60;57.35
15056;BME280;7626;42.674;23.284;2022-12-19T13:39:30;96549.63;;;6.61;56.98